OAL117 SLPO-SBCG
Flight info
| Callsign | OAL117 |
|---|---|
| Flight time | 1h 34m |
| Altitude | 37000 |
| Route | ALC UW14 VIR UM411 ATERU UZ42 IRIPI |
| Aircraft | A320/M-SDE3FGHIRWY/LB1 |
Departure
| Time | 2026-05-08 18:57 |
|---|---|
| Airport | Capitan Nicolas Rojas Airport (SLPO) |
Arrival
| Time | 2026-05-08 20:31 |
|---|---|
| Airport | Campo Grande Airport (SBCG) |
| Time | Latitude | Longitude | Altitude | Speed | Heading |
|---|---|---|---|---|---|
| 2026-05-08 18:23 | -19.54279 | -65.71972 | 12663 ft | 0 kts | 107° |
| 2026-05-08 18:47 | -19.54279 | -65.71973 | 12664 ft | 4 kts | 107° |
| 2026-05-08 18:47 | -19.54277 | -65.71998 | 12665 ft | 4 kts | 60° |
| 2026-05-08 18:47 | -19.54295 | -65.72015 | 12667 ft | 2 kts | 9° |
| 2026-05-08 18:48 | -19.54300 | -65.72016 | 12667 ft | 0 kts | 360° |
| 2026-05-08 18:51 | -19.54274 | -65.72016 | 12665 ft | 9 kts | 3° |
| 2026-05-08 18:52 | -19.54208 | -65.72066 | 12667 ft | 15 kts | 322° |
| 2026-05-08 18:52 | -19.54176 | -65.72154 | 12670 ft | 12 kts | 253° |
| 2026-05-08 18:52 | -19.54212 | -65.72223 | 12675 ft | 9 kts | 236° |
| 2026-05-08 18:52 | -19.54250 | -65.72280 | 12679 ft | 12 kts | 235° |
| 2026-05-08 18:53 | -19.54306 | -65.72366 | 12684 ft | 17 kts | 235° |
| 2026-05-08 18:53 | -19.54380 | -65.72481 | 12692 ft | 21 kts | 236° |
| 2026-05-08 18:53 | -19.54467 | -65.72619 | 12704 ft | 25 kts | 235° |
| 2026-05-08 18:53 | -19.54569 | -65.72779 | 12717 ft | 28 kts | 236° |
| 2026-05-08 18:54 | -19.54682 | -65.72959 | 12731 ft | 31 kts | 236° |
| 2026-05-08 18:54 | -19.54803 | -65.73157 | 12745 ft | 31 kts | 237° |
| 2026-05-08 18:54 | -19.54913 | -65.73337 | 12757 ft | 27 kts | 236° |
| 2026-05-08 18:54 | -19.54999 | -65.73488 | 12767 ft | 21 kts | 241° |
| 2026-05-08 18:55 | -19.55017 | -65.73493 | 12766 ft | 0 kts | 65° |
| 2026-05-08 18:55 | -19.55015 | -65.73490 | 12766 ft | 0 kts | 65° |
| 2026-05-08 18:55 | -19.54998 | -65.73460 | 12767 ft | 25 kts | 55° |
| 2026-05-08 18:56 | -19.54767 | -65.73093 | 12741 ft | 92 kts | 56° |
| 2026-05-08 18:56 | -19.54477 | -65.72643 | 12705 ft | 130 kts | 57° |
| 2026-05-08 18:56 | -19.53637 | -65.71338 | 12616 ft | 190 kts | 53° |
| 2026-05-08 18:56 | -19.52890 | -65.70195 | 13197 ft | 184 kts | 58° |
| 2026-05-08 18:57 | -19.52184 | -65.68988 | 13343 ft | 200 kts | 60° |
| 2026-05-08 18:57 | -19.51750 | -65.68142 | 13560 ft | 193 kts | 63° |
| 2026-05-08 18:57 | -19.51076 | -65.66327 | 13796 ft | 199 kts | 71° |
| 2026-05-08 18:57 | -19.50637 | -65.64955 | 14066 ft | 210 kts | 72° |
| 2026-05-08 18:58 | -19.50306 | -65.63724 | 13542 ft | 0 kts | 76° |
| 2026-05-08 18:58 | -19.50200 | -65.63270 | 14813 ft | 272 kts | 76° |
| 2026-05-08 18:58 | -19.49882 | -65.61165 | 14976 ft | 294 kts | 85° |
| 2026-05-08 18:58 | -19.49466 | -65.58963 | 15106 ft | 321 kts | 64° |
| 2026-05-08 18:59 | -19.48146 | -65.56940 | 15240 ft | 343 kts | 48° |
| 2026-05-08 18:59 | -19.46553 | -65.54935 | 15490 ft | 367 kts | 48° |
| 2026-05-08 18:59 | -19.44851 | -65.52801 | 15706 ft | 390 kts | 49° |
| 2026-05-08 18:59 | -19.43106 | -65.50516 | 16136 ft | 406 kts | 56° |
| 2026-05-08 19:00 | -19.41717 | -65.47880 | 16799 ft | 413 kts | 62° |
| 2026-05-08 19:00 | -19.40438 | -65.45129 | 17576 ft | 419 kts | 64° |
| 2026-05-08 19:00 | -19.39204 | -65.42309 | 18353 ft | 424 kts | 65° |
| 2026-05-08 19:00 | -19.37995 | -65.39477 | 19066 ft | 430 kts | 65° |
| 2026-05-08 19:01 | -19.36757 | -65.36582 | 19810 ft | 433 kts | 65° |
| 2026-05-08 19:01 | -19.35493 | -65.33669 | 20537 ft | 437 kts | 65° |
| 2026-05-08 19:01 | -19.34197 | -65.30736 | 21235 ft | 440 kts | 64° |
| 2026-05-08 19:01 | -19.32896 | -65.27833 | 21455 ft | 437 kts | 64° |
| 2026-05-08 19:02 | -19.31576 | -65.24915 | 21816 ft | 442 kts | 64° |
| 2026-05-08 19:02 | -19.30237 | -65.21965 | 22249 ft | 445 kts | 64° |
| 2026-05-08 19:02 | -19.28892 | -65.19002 | 22669 ft | 448 kts | 64° |
| 2026-05-08 19:02 | -19.27542 | -65.16022 | 23045 ft | 450 kts | 64° |
| 2026-05-08 19:03 | -19.25881 | -65.13219 | 23422 ft | 451 kts | 49° |
| 2026-05-08 19:03 | -19.23809 | -65.10716 | 23797 ft | 453 kts | 47° |
| 2026-05-08 19:03 | -19.21728 | -65.08199 | 24103 ft | 455 kts | 48° |
| 2026-05-08 19:03 | -19.19648 | -65.05661 | 24405 ft | 458 kts | 48° |
| 2026-05-08 19:04 | -19.17564 | -65.03109 | 24670 ft | 460 kts | 48° |
| 2026-05-08 19:04 | -19.15469 | -65.00544 | 24937 ft | 462 kts | 47° |
| 2026-05-08 19:04 | -19.13363 | -64.97969 | 25186 ft | 464 kts | 47° |
| 2026-05-08 19:04 | -19.11246 | -64.95386 | 25433 ft | 466 kts | 47° |
| 2026-05-08 19:05 | -19.09117 | -64.92795 | 25675 ft | 468 kts | 47° |
| 2026-05-08 19:05 | -19.06973 | -64.90191 | 25908 ft | 470 kts | 47° |
| 2026-05-08 19:05 | -19.04823 | -64.87577 | 26161 ft | 472 kts | 47° |
| 2026-05-08 19:05 | -19.02664 | -64.84950 | 26386 ft | 475 kts | 46° |
| 2026-05-08 19:06 | -19.00495 | -64.82307 | 26647 ft | 477 kts | 46° |
| 2026-05-08 19:06 | -18.98317 | -64.79656 | 26939 ft | 479 kts | 46° |
| 2026-05-08 19:06 | -18.96127 | -64.76995 | 27205 ft | 481 kts | 46° |
| 2026-05-08 19:06 | -18.93921 | -64.74319 | 27493 ft | 483 kts | 46° |
| 2026-05-08 19:07 | -18.91715 | -64.71646 | 27882 ft | 482 kts | 46° |
| 2026-05-08 19:07 | -18.89517 | -64.68976 | 28291 ft | 482 kts | 46° |
| 2026-05-08 19:07 | -18.87316 | -64.66306 | 28688 ft | 481 kts | 46° |
| 2026-05-08 19:07 | -18.85120 | -64.63646 | 29090 ft | 481 kts | 45° |
| 2026-05-08 19:08 | -18.82922 | -64.60979 | 29491 ft | 481 kts | 45° |
| 2026-05-08 19:08 | -18.80731 | -64.58321 | 29903 ft | 480 kts | 45° |
| 2026-05-08 19:08 | -18.78535 | -64.55657 | 30204 ft | 480 kts | 45° |
| 2026-05-08 19:08 | -18.76347 | -64.52992 | 30562 ft | 480 kts | 45° |
| 2026-05-08 19:09 | -18.74167 | -64.50322 | 30920 ft | 479 kts | 45° |
| 2026-05-08 19:09 | -18.71992 | -64.47647 | 31296 ft | 479 kts | 45° |
| 2026-05-08 19:09 | -18.69828 | -64.44979 | 31688 ft | 478 kts | 45° |
| 2026-05-08 19:09 | -18.67669 | -64.42323 | 32085 ft | 477 kts | 45° |
| 2026-05-08 19:10 | -18.65504 | -64.39664 | 32497 ft | 476 kts | 44° |
| 2026-05-08 19:10 | -18.63370 | -64.37048 | 32848 ft | 476 kts | 44° |
| 2026-05-08 19:10 | -18.61217 | -64.34413 | 33234 ft | 475 kts | 44° |
| 2026-05-08 19:10 | -18.59054 | -64.31769 | 33654 ft | 475 kts | 44° |
| 2026-05-08 19:11 | -18.56904 | -64.29140 | 33996 ft | 474 kts | 44° |
| 2026-05-08 19:11 | -18.54752 | -64.26505 | 34328 ft | 473 kts | 44° |
| 2026-05-08 19:11 | -18.52599 | -64.23868 | 34657 ft | 472 kts | 44° |
| 2026-05-08 19:11 | -18.50453 | -64.21245 | 34958 ft | 471 kts | 44° |
| 2026-05-08 19:12 | -18.48314 | -64.18632 | 35259 ft | 470 kts | 43° |
| 2026-05-08 19:12 | -18.46182 | -64.16031 | 35558 ft | 469 kts | 43° |
| 2026-05-08 19:12 | -18.44049 | -64.13430 | 35865 ft | 467 kts | 43° |
| 2026-05-08 19:12 | -18.41953 | -64.10871 | 36169 ft | 466 kts | 43° |
| 2026-05-08 19:13 | -18.39832 | -64.08280 | 36442 ft | 466 kts | 43° |
| 2026-05-08 19:13 | -18.37720 | -64.05698 | 36732 ft | 465 kts | 43° |
| 2026-05-08 19:13 | -18.35602 | -64.03116 | 36940 ft | 465 kts | 43° |
| 2026-05-08 19:14 | -18.31323 | -63.97918 | 36992 ft | 473 kts | 43° |
| 2026-05-08 19:14 | -18.27027 | -63.92694 | 37002 ft | 476 kts | 43° |
| 2026-05-08 19:15 | -18.22685 | -63.87404 | 37008 ft | 477 kts | 43° |
| 2026-05-08 19:15 | -18.18320 | -63.82101 | 37013 ft | 478 kts | 43° |
| 2026-05-08 19:16 | -18.13956 | -63.76804 | 37015 ft | 478 kts | 43° |
| 2026-05-08 19:16 | -18.09602 | -63.71515 | 37027 ft | 479 kts | 43° |
| 2026-05-08 19:17 | -18.05269 | -63.66260 | 37024 ft | 479 kts | 42° |
| 2026-05-08 19:17 | -18.00895 | -63.60968 | 37020 ft | 479 kts | 42° |
| 2026-05-08 19:18 | -17.96526 | -63.55678 | 37020 ft | 478 kts | 42° |
| 2026-05-08 19:18 | -17.92148 | -63.50387 | 37017 ft | 479 kts | 42° |
| 2026-05-08 19:19 | -17.87800 | -63.45137 | 37011 ft | 479 kts | 42° |
| 2026-05-08 19:19 | -17.83429 | -63.39856 | 37006 ft | 478 kts | 42° |
| 2026-05-08 19:20 | -17.79066 | -63.34594 | 37002 ft | 478 kts | 42° |
| 2026-05-08 19:20 | -17.74698 | -63.29326 | 37000 ft | 477 kts | 42° |
| 2026-05-08 19:21 | -17.70342 | -63.24082 | 36972 ft | 476 kts | 42° |
| 2026-05-08 19:21 | -17.66323 | -63.18536 | 36963 ft | 486 kts | 58° |
| 2026-05-08 19:21 | -17.65060 | -63.15218 | 36965 ft | 494 kts | 71° |
| 2026-05-08 19:22 | -17.64480 | -63.11689 | 36965 ft | 500 kts | 84° |
| 2026-05-08 19:22 | -17.64627 | -63.08025 | 36960 ft | 504 kts | 98° |
| 2026-05-08 19:22 | -17.65455 | -63.04455 | 36963 ft | 505 kts | 105° |
| 2026-05-08 19:23 | -17.67418 | -62.97361 | 36967 ft | 506 kts | 105° |
| 2026-05-08 19:23 | -17.69376 | -62.90258 | 36979 ft | 507 kts | 105° |
| 2026-05-08 19:24 | -17.71328 | -62.83136 | 36994 ft | 507 kts | 105° |
| 2026-05-08 19:24 | -17.73277 | -62.76017 | 37005 ft | 508 kts | 105° |
| 2026-05-08 19:25 | -17.75216 | -62.68927 | 37019 ft | 508 kts | 104° |
| 2026-05-08 19:25 | -17.77166 | -62.61798 | 37019 ft | 508 kts | 104° |
| 2026-05-08 19:26 | -17.79099 | -62.54700 | 37024 ft | 508 kts | 104° |
| 2026-05-08 19:26 | -17.81039 | -62.47560 | 37027 ft | 508 kts | 104° |
| 2026-05-08 19:27 | -17.82975 | -62.40433 | 37029 ft | 507 kts | 104° |
| 2026-05-08 19:27 | -17.84906 | -62.33307 | 37025 ft | 507 kts | 104° |
| 2026-05-08 19:28 | -17.86832 | -62.26226 | 37028 ft | 506 kts | 104° |
| 2026-05-08 19:28 | -17.88772 | -62.19064 | 37033 ft | 506 kts | 104° |
| 2026-05-08 19:29 | -17.90678 | -62.11989 | 37034 ft | 506 kts | 104° |
| 2026-05-08 19:29 | -17.92602 | -62.04875 | 37028 ft | 506 kts | 104° |
| 2026-05-08 19:30 | -17.94522 | -61.97766 | 37033 ft | 505 kts | 104° |
| 2026-05-08 19:30 | -17.96115 | -61.91862 | 37033 ft | 506 kts | 104° |
| 2026-05-08 19:31 | -17.98345 | -61.83544 | 37030 ft | 506 kts | 104° |
| 2026-05-08 19:31 | -18.00248 | -61.76478 | 37039 ft | 506 kts | 104° |
| 2026-05-08 19:32 | -18.02202 | -61.69335 | 37028 ft | 505 kts | 105° |
| 2026-05-08 19:32 | -18.04132 | -61.62284 | 37035 ft | 504 kts | 105° |
| 2026-05-08 19:33 | -18.06065 | -61.55196 | 37039 ft | 504 kts | 105° |
| 2026-05-08 19:33 | -18.07997 | -61.48103 | 37038 ft | 504 kts | 105° |
| 2026-05-08 19:34 | -18.09921 | -61.41014 | 37035 ft | 504 kts | 105° |
| 2026-05-08 19:34 | -18.11896 | -61.33941 | 37038 ft | 504 kts | 105° |
| 2026-05-08 19:35 | -18.13885 | -61.26916 | 37034 ft | 504 kts | 105° |
| 2026-05-08 19:35 | -18.15875 | -61.19829 | 37031 ft | 504 kts | 105° |
| 2026-05-08 19:36 | -18.17838 | -61.12749 | 37028 ft | 504 kts | 105° |
| 2026-05-08 19:36 | -18.19797 | -61.05703 | 37027 ft | 504 kts | 105° |
| 2026-05-08 19:37 | -18.21775 | -60.98626 | 37027 ft | 504 kts | 105° |
| 2026-05-08 19:37 | -18.23749 | -60.91549 | 37025 ft | 504 kts | 105° |
| 2026-05-08 19:38 | -18.25382 | -60.85663 | 37019 ft | 503 kts | 105° |
| 2026-05-08 19:38 | -18.27339 | -60.78584 | 37023 ft | 503 kts | 105° |
| 2026-05-08 19:39 | -18.29292 | -60.71503 | 37017 ft | 503 kts | 105° |
| 2026-05-08 19:39 | -18.31232 | -60.64466 | 37020 ft | 503 kts | 105° |
| 2026-05-08 19:40 | -18.33182 | -60.57401 | 37016 ft | 503 kts | 105° |
| 2026-05-08 19:40 | -18.35141 | -60.50321 | 37022 ft | 503 kts | 105° |
| 2026-05-08 19:41 | -18.37090 | -60.43240 | 37018 ft | 503 kts | 105° |
| 2026-05-08 19:41 | -18.39030 | -60.36168 | 37021 ft | 503 kts | 105° |
| 2026-05-08 19:42 | -18.40956 | -60.29117 | 37023 ft | 503 kts | 105° |
| 2026-05-08 19:42 | -18.42889 | -60.22025 | 37023 ft | 502 kts | 105° |
| 2026-05-08 19:43 | -18.44822 | -60.14942 | 37024 ft | 502 kts | 105° |
| 2026-05-08 19:43 | -18.46740 | -60.07919 | 37031 ft | 501 kts | 105° |
| 2026-05-08 19:44 | -18.48661 | -60.00866 | 37037 ft | 501 kts | 105° |
| 2026-05-08 19:44 | -18.50583 | -59.93797 | 37043 ft | 501 kts | 105° |
| 2026-05-08 19:45 | -18.52501 | -59.86729 | 37047 ft | 501 kts | 105° |
| 2026-05-08 19:45 | -18.54402 | -59.79704 | 37048 ft | 501 kts | 105° |
| 2026-05-08 19:46 | -18.56317 | -59.72631 | 37039 ft | 501 kts | 105° |
| 2026-05-08 19:46 | -18.59184 | -59.62033 | 37018 ft | 501 kts | 104° |
| 2026-05-08 19:47 | -18.61076 | -59.54963 | 37011 ft | 501 kts | 105° |
| 2026-05-08 19:47 | -18.62971 | -59.47924 | 37003 ft | 501 kts | 105° |
| 2026-05-08 19:48 | -18.64880 | -59.40854 | 37008 ft | 501 kts | 104° |
| 2026-05-08 19:48 | -18.66776 | -59.33781 | 37005 ft | 501 kts | 104° |
| 2026-05-08 19:49 | -18.68657 | -59.26742 | 36997 ft | 500 kts | 104° |
| 2026-05-08 19:49 | -18.70543 | -59.19673 | 36996 ft | 501 kts | 105° |
| 2026-05-08 19:50 | -18.72433 | -59.12600 | 36996 ft | 501 kts | 105° |
| 2026-05-08 19:50 | -18.74318 | -59.05512 | 36994 ft | 501 kts | 105° |
| 2026-05-08 19:51 | -18.76206 | -58.98411 | 36977 ft | 502 kts | 104° |
| 2026-05-08 19:51 | -18.78077 | -58.91352 | 36977 ft | 502 kts | 105° |
| 2026-05-08 19:52 | -18.79963 | -58.84255 | 36974 ft | 502 kts | 105° |
| 2026-05-08 19:52 | -18.81854 | -58.77154 | 36974 ft | 502 kts | 104° |
| 2026-05-08 19:53 | -18.83718 | -58.70064 | 36969 ft | 502 kts | 104° |
| 2026-05-08 19:53 | -18.85581 | -58.62967 | 36967 ft | 501 kts | 105° |
| 2026-05-08 19:54 | -18.87489 | -58.55884 | 36965 ft | 501 kts | 105° |
| 2026-05-08 19:54 | -18.89432 | -58.48807 | 36959 ft | 501 kts | 105° |
| 2026-05-08 19:55 | -18.91357 | -58.41756 | 36958 ft | 502 kts | 105° |
| 2026-05-08 19:55 | -18.93281 | -58.34673 | 36956 ft | 502 kts | 105° |
| 2026-05-08 19:56 | -18.95197 | -58.27564 | 36962 ft | 502 kts | 105° |
| 2026-05-08 19:56 | -18.97135 | -58.20460 | 36960 ft | 502 kts | 105° |
| 2026-05-08 19:57 | -18.99079 | -58.13402 | 36948 ft | 502 kts | 105° |
| 2026-05-08 19:57 | -19.01015 | -58.06299 | 36939 ft | 502 kts | 105° |
| 2026-05-08 19:58 | -19.02948 | -57.99186 | 36927 ft | 502 kts | 105° |
| 2026-05-08 19:58 | -19.04873 | -57.92128 | 36913 ft | 502 kts | 105° |
| 2026-05-08 19:59 | -19.06801 | -57.85038 | 36908 ft | 502 kts | 105° |
| 2026-05-08 19:59 | -19.08770 | -57.77947 | 36913 ft | 502 kts | 108° |
| 2026-05-08 20:00 | -19.11055 | -57.70972 | 36942 ft | 503 kts | 110° |
| 2026-05-08 20:00 | -19.13501 | -57.64039 | 36945 ft | 503 kts | 110° |
| 2026-05-08 20:01 | -19.15880 | -57.57082 | 36939 ft | 503 kts | 109° |
| 2026-05-08 20:01 | -19.18188 | -57.50100 | 36937 ft | 503 kts | 109° |
| 2026-05-08 20:02 | -19.20481 | -57.43111 | 36935 ft | 503 kts | 109° |
| 2026-05-08 20:02 | -19.22787 | -57.36130 | 36931 ft | 503 kts | 109° |
| 2026-05-08 20:03 | -19.25102 | -57.29144 | 36930 ft | 503 kts | 109° |
| 2026-05-08 20:03 | -19.27406 | -57.22169 | 36936 ft | 502 kts | 109° |
| 2026-05-08 20:04 | -19.29715 | -57.15181 | 36934 ft | 502 kts | 109° |
| 2026-05-08 20:04 | -19.32023 | -57.08184 | 36926 ft | 502 kts | 109° |
| 2026-05-08 20:05 | -19.34305 | -57.01233 | 36931 ft | 503 kts | 109° |
| 2026-05-08 20:05 | -19.37184 | -56.94500 | 36924 ft | 501 kts | 119° |
| 2026-05-08 20:06 | -19.40417 | -56.87956 | 36918 ft | 502 kts | 118° |
| 2026-05-08 20:06 | -19.43632 | -56.81395 | 36911 ft | 502 kts | 118° |
| 2026-05-08 20:07 | -19.46306 | -56.75930 | 36909 ft | 502 kts | 118° |
| 2026-05-08 20:07 | -19.50075 | -56.68232 | 36908 ft | 502 kts | 118° |
| 2026-05-08 20:08 | -19.53298 | -56.61654 | 36906 ft | 502 kts | 118° |
| 2026-05-08 20:08 | -19.56489 | -56.55109 | 36903 ft | 503 kts | 118° |
| 2026-05-08 20:09 | -19.59717 | -56.48493 | 36903 ft | 504 kts | 118° |
| 2026-05-08 20:09 | -19.62948 | -56.41885 | 36901 ft | 504 kts | 119° |
| 2026-05-08 20:10 | -19.66173 | -56.35285 | 36898 ft | 504 kts | 119° |
| 2026-05-08 20:10 | -19.69392 | -56.28655 | 36896 ft | 505 kts | 118° |
| 2026-05-08 20:11 | -19.72580 | -56.22072 | 36911 ft | 504 kts | 119° |
| 2026-05-08 20:11 | -19.75783 | -56.15471 | 36916 ft | 501 kts | 119° |
| 2026-05-08 20:12 | -19.78973 | -56.08885 | 36888 ft | 502 kts | 119° |
| 2026-05-08 20:12 | -19.82183 | -56.02275 | 36872 ft | 504 kts | 119° |
| 2026-05-08 20:13 | -19.85398 | -55.95640 | 36876 ft | 505 kts | 119° |
| 2026-05-08 20:13 | -19.88604 | -55.88999 | 36830 ft | 503 kts | 119° |
| 2026-05-08 20:14 | -19.90216 | -55.85660 | 35826 ft | 513 kts | 119° |
| 2026-05-08 20:14 | -19.91840 | -55.82295 | 34785 ft | 523 kts | 119° |
| 2026-05-08 20:14 | -19.93509 | -55.78829 | 33842 ft | 529 kts | 119° |
| 2026-05-08 20:14 | -19.95195 | -55.75329 | 32827 ft | 532 kts | 119° |
| 2026-05-08 20:15 | -19.96884 | -55.71824 | 31985 ft | 532 kts | 119° |
| 2026-05-08 20:15 | -19.98568 | -55.68323 | 31165 ft | 531 kts | 119° |
| 2026-05-08 20:15 | -20.00243 | -55.64840 | 30373 ft | 529 kts | 120° |
| 2026-05-08 20:15 | -20.02164 | -55.61511 | 29513 ft | 524 kts | 129° |
| 2026-05-08 20:16 | -20.04477 | -55.58534 | 28621 ft | 519 kts | 135° |
| 2026-05-08 20:16 | -20.06851 | -55.55714 | 27762 ft | 517 kts | 135° |
| 2026-05-08 20:16 | -20.09246 | -55.52865 | 26918 ft | 515 kts | 134° |
| 2026-05-08 20:16 | -20.11627 | -55.50024 | 26098 ft | 513 kts | 134° |
| 2026-05-08 20:17 | -20.13998 | -55.47184 | 25304 ft | 511 kts | 134° |
| 2026-05-08 20:17 | -20.16346 | -55.44370 | 24527 ft | 508 kts | 134° |
| 2026-05-08 20:17 | -20.18690 | -55.41565 | 23886 ft | 503 kts | 133° |
| 2026-05-08 20:17 | -20.21004 | -55.38797 | 23296 ft | 496 kts | 133° |
| 2026-05-08 20:18 | -20.23283 | -55.36064 | 22593 ft | 491 kts | 132° |
| 2026-05-08 20:18 | -20.24666 | -55.34161 | 22060 ft | 489 kts | 126° |
| 2026-05-08 20:18 | -20.26371 | -55.31001 | 21007 ft | 493 kts | 116° |
| 2026-05-08 20:18 | -20.28370 | -55.26624 | 19658 ft | 495 kts | 116° |
| 2026-05-08 20:19 | -20.29386 | -55.24396 | 18992 ft | 496 kts | 116° |
| 2026-05-08 20:19 | -20.30892 | -55.21098 | 18338 ft | 489 kts | 116° |
| 2026-05-08 20:19 | -20.32329 | -55.17962 | 18012 ft | 464 kts | 116° |
| 2026-05-08 20:19 | -20.33728 | -55.14911 | 17031 ft | 452 kts | 116° |
| 2026-05-08 20:20 | -20.35096 | -55.11936 | 16050 ft | 443 kts | 116° |
| 2026-05-08 20:20 | -20.36443 | -55.09007 | 15072 ft | 436 kts | 115° |
| 2026-05-08 20:20 | -20.37764 | -55.06126 | 14097 ft | 429 kts | 115° |
| 2026-05-08 20:20 | -20.39137 | -55.03333 | 13043 ft | 423 kts | 122° |
| 2026-05-08 20:21 | -20.40941 | -55.00902 | 12183 ft | 411 kts | 136° |
| 2026-05-08 20:21 | -20.42947 | -54.98880 | 11996 ft | 382 kts | 137° |
| 2026-05-08 20:21 | -20.44801 | -54.96988 | 11877 ft | 357 kts | 136° |
| 2026-05-08 20:21 | -20.46551 | -54.95185 | 11510 ft | 344 kts | 136° |
| 2026-05-08 20:22 | -20.48261 | -54.93423 | 10967 ft | 339 kts | 136° |
| 2026-05-08 20:22 | -20.49850 | -54.91589 | 10389 ft | 336 kts | 122° |
| 2026-05-08 20:22 | -20.50727 | -54.89330 | 9844 ft | 327 kts | 96° |
| 2026-05-08 20:22 | -20.50701 | -54.86976 | 9342 ft | 309 kts | 70° |
| 2026-05-08 20:23 | -20.49901 | -54.84926 | 9191 ft | 297 kts | 49° |
| 2026-05-08 20:23 | -20.48552 | -54.83320 | 9018 ft | 288 kts | 35° |
| 2026-05-08 20:23 | -20.47074 | -54.81879 | 8868 ft | 288 kts | 35° |
| 2026-05-08 20:23 | -20.45595 | -54.80447 | 8706 ft | 286 kts | 35° |
| 2026-05-08 20:24 | -20.44122 | -54.79027 | 8552 ft | 285 kts | 35° |
| 2026-05-08 20:24 | -20.42652 | -54.77611 | 8385 ft | 284 kts | 34° |
| 2026-05-08 20:24 | -20.41190 | -54.76202 | 8226 ft | 283 kts | 35° |
| 2026-05-08 20:24 | -20.39731 | -54.74797 | 8067 ft | 282 kts | 35° |
| 2026-05-08 20:25 | -20.38279 | -54.73395 | 7891 ft | 281 kts | 35° |
| 2026-05-08 20:25 | -20.36840 | -54.72006 | 7519 ft | 277 kts | 34° |
| 2026-05-08 20:25 | -20.35414 | -54.70631 | 7176 ft | 275 kts | 34° |
| 2026-05-08 20:25 | -20.34000 | -54.69269 | 6832 ft | 273 kts | 34° |
| 2026-05-08 20:26 | -20.32596 | -54.67918 | 6493 ft | 270 kts | 34° |
| 2026-05-08 20:26 | -20.31206 | -54.66578 | 6153 ft | 269 kts | 34° |
| 2026-05-08 20:26 | -20.29834 | -54.65239 | 5810 ft | 268 kts | 38° |
| 2026-05-08 20:26 | -20.28829 | -54.63525 | 5470 ft | 284 kts | 66° |
| 2026-05-08 20:27 | -20.28711 | -54.61413 | 5150 ft | 290 kts | 98° |
| 2026-05-08 20:27 | -20.29569 | -54.59532 | 5034 ft | 278 kts | 128° |
| 2026-05-08 20:27 | -20.30836 | -54.58029 | 4698 ft | 271 kts | 131° |
| 2026-05-08 20:27 | -20.32249 | -54.56824 | 4540 ft | 251 kts | 155° |
| 2026-05-08 20:28 | -20.33875 | -54.56362 | 4172 ft | 235 kts | 183° |
| 2026-05-08 20:28 | -20.35394 | -54.56626 | 3821 ft | 210 kts | 209° |
| 2026-05-08 20:28 | -20.36593 | -54.57376 | 3391 ft | 193 kts | 230° |
| 2026-05-08 20:28 | -20.37552 | -54.58304 | 3215 ft | 178 kts | 231° |
| 2026-05-08 20:29 | -20.38453 | -54.59162 | 3289 ft | 168 kts | 232° |
| 2026-05-08 20:29 | -20.39315 | -54.59986 | 3105 ft | 173 kts | 232° |
| 2026-05-08 20:29 | -20.40270 | -54.60915 | 2446 ft | 189 kts | 226° |
| 2026-05-08 20:29 | -20.41225 | -54.61815 | 2231 ft | 177 kts | 223° |
| 2026-05-08 20:30 | -20.42133 | -54.62654 | 2167 ft | 170 kts | 223° |
| 2026-05-08 20:30 | -20.43037 | -54.63479 | 2144 ft | 168 kts | 222° |
| 2026-05-08 20:30 | -20.43901 | -54.64262 | 2377 ft | 160 kts | 223° |
| 2026-05-08 20:30 | -20.44746 | -54.65046 | 2203 ft | 162 kts | 224° |
| 2026-05-08 20:31 | -20.45539 | -54.65873 | 2029 ft | 159 kts | 226° |
| 2026-05-08 20:31 | -20.46311 | -54.66727 | 1874 ft | 161 kts | 227° |
| 2026-05-08 20:31 | -20.47090 | -54.67492 | 1840 ft | 141 kts | 220° |
| 2026-05-08 20:31 | -20.47589 | -54.67971 | 1840 ft | 35 kts | 223° |
| 2026-05-08 20:32 | -20.47703 | -54.68083 | 1839 ft | 13 kts | 222° |
| 2026-05-08 20:32 | -20.47766 | -54.68144 | 1840 ft | 17 kts | 221° |
| 2026-05-08 20:32 | -20.47826 | -54.68218 | 1839 ft | 11 kts | 247° |
| 2026-05-08 20:32 | -20.47800 | -54.68295 | 1839 ft | 12 kts | 306° |
| 2026-05-08 20:33 | -20.47728 | -54.68340 | 1839 ft | 13 kts | 6° |
| 2026-05-08 20:33 | -20.47652 | -54.68287 | 1839 ft | 14 kts | 42° |
| 2026-05-08 20:33 | -20.47567 | -54.68204 | 1839 ft | 20 kts | 42° |
| 2026-05-08 20:33 | -20.47444 | -54.68085 | 1839 ft | 28 kts | 41° |
| 2026-05-08 20:34 | -20.47281 | -54.67935 | 1839 ft | 34 kts | 40° |
| 2026-05-08 20:34 | -20.47091 | -54.67757 | 1839 ft | 26 kts | 41° |
| 2026-05-08 20:34 | -20.46920 | -54.67577 | 1839 ft | 24 kts | 42° |
| 2026-05-08 20:35 | -20.46774 | -54.67440 | 1839 ft | 31 kts | 40° |
| 2026-05-08 20:35 | -20.46591 | -54.67275 | 1839 ft | 38 kts | 41° |
| 2026-05-08 20:35 | -20.46387 | -54.67069 | 1839 ft | 43 kts | 43° |
| 2026-05-08 20:35 | -20.46154 | -54.66845 | 1839 ft | 38 kts | 41° |
| 2026-05-08 20:36 | -20.46092 | -54.66786 | 1839 ft | 3 kts | 42° |
| 2026-05-08 20:36 | -20.46053 | -54.66748 | 1839 ft | 12 kts | 42° |
| 2026-05-08 20:36 | -20.45966 | -54.66684 | 1839 ft | 18 kts | 355° |
| 2026-05-08 20:36 | -20.45858 | -54.66720 | 1839 ft | 12 kts | 327° |
| 2026-05-08 20:37 | -20.45828 | -54.66802 | 1839 ft | 10 kts | 290° |
| 2026-05-08 20:37 | -20.45779 | -54.66819 | 1839 ft | 0 kts | 353° |
| 2026-05-08 20:39 | -20.34424 | -55.13396 | 16537 ft | 446 kts | 116° |
| 2026-05-08 20:39 | -20.41951 | -54.62487 | 2148 ft | 170 kts | 223° |
| 2026-05-08 20:39 | -20.44517 | -54.64828 | 2283 ft | 165 kts | 224° |
| 2026-05-08 20:42 | -20.45065 | -54.65359 | 2099 ft | 160 kts | 225° |
| 2026-05-08 20:42 | -20.45844 | -54.66198 | 1969 ft | 159 kts | 229° |
| 2026-05-08 20:42 | -20.46613 | -54.67048 | 1844 ft | 156 kts | 223° |
| 2026-05-08 20:43 | -20.47362 | -54.67747 | 1838 ft | 120 kts | 223° |
| 2026-05-08 20:43 | -20.47651 | -54.68032 | 1840 ft | 20 kts | 223° |
| 2026-05-08 20:43 | -20.45722 | -54.66067 | 1983 ft | 162 kts | 227° |
| 2026-05-08 20:43 | -20.45591 | -54.65929 | 2015 ft | 160 kts | 226° |
| 2026-05-08 20:44 | -20.46372 | -54.66794 | 1864 ft | 161 kts | 226° |
| 2026-05-08 20:44 | -20.47148 | -54.67544 | 1839 ft | 139 kts | 220° |
| 2026-05-08 20:44 | -20.45779 | -54.66819 | 1839 ft | 5 kts | 353° |